createdAt,value
2023-05-22T00:00:44.459Z,4.30
2023-05-22T00:01:44.318Z,4.30
2023-05-22T00:02:44.369Z,4.30
2023-05-22T00:03:44.283Z,4.60
2023-05-22T00:04:44.354Z,4.50
2023-05-22T00:05:44.236Z,4.80
2023-05-22T00:06:44.252Z,4.30
2023-05-22T00:07:44.288Z,4.20
2023-05-22T00:08:44.270Z,4.90
2023-05-22T00:09:44.231Z,5.10
2023-05-22T00:10:44.198Z,4.50
2023-05-22T00:11:44.285Z,4.40
2023-05-22T00:12:44.276Z,5.30
2023-05-22T00:13:44.154Z,4.60
2023-05-22T00:14:44.168Z,4.80
2023-05-22T00:15:44.154Z,4.30
2023-05-22T00:16:44.220Z,5.10
2023-05-22T00:17:44.120Z,5.00
2023-05-22T00:18:44.111Z,5.70
2023-05-22T00:19:44.083Z,4.40
2023-05-22T00:20:44.091Z,4.90
2023-05-22T00:21:44.096Z,4.80
2023-05-22T00:22:44.094Z,5.00
2023-05-22T00:23:44.041Z,4.60
2023-05-22T00:24:44.292Z,4.70
2023-05-22T00:25:44.041Z,4.90
2023-05-22T00:26:44.020Z,4.30
2023-05-22T00:27:44.291Z,5.20
2023-05-22T00:28:44.301Z,4.90
2023-05-22T00:29:43.970Z,4.30
2023-05-22T00:30:43.972Z,4.80
2023-05-22T00:31:43.968Z,4.60
2023-05-22T00:32:44.303Z,4.50
2023-05-22T00:33:43.948Z,4.80
2023-05-22T00:34:43.982Z,4.90
2023-05-22T00:35:43.908Z,5.30
2023-05-22T00:36:44.322Z,4.80
2023-05-22T00:37:43.881Z,5.00
2023-05-22T00:38:43.901Z,5.00
2023-05-22T00:39:44.296Z,4.60
2023-05-22T00:40:43.874Z,4.80
2023-05-22T00:41:43.831Z,4.90
2023-05-22T00:42:44.305Z,5.60
2023-05-22T00:43:44.310Z,4.50
2023-05-22T00:44:44.301Z,5.50
2023-05-22T00:45:43.799Z,4.90
2023-05-22T00:46:43.845Z,4.50
2023-05-22T00:47:43.795Z,4.50
2023-05-22T00:48:43.874Z,4.50
2023-05-22T00:49:43.755Z,4.60
2023-05-22T00:50:43.829Z,4.70
2023-05-22T00:51:43.969Z,4.80
2023-05-22T00:52:44.006Z,4.70
2023-05-22T00:53:43.721Z,4.80
2023-05-22T00:54:43.724Z,5.30
2023-05-22T00:55:43.714Z,4.70
2023-05-22T00:56:44.136Z,4.70
2023-05-22T00:57:43.669Z,4.80
2023-05-22T00:58:43.665Z,4.60
2023-05-22T00:59:43.644Z,4.80
2023-05-22T01:00:43.876Z,4.90
2023-05-22T01:01:43.638Z,5.00
2023-05-22T01:02:43.679Z,4.80
2023-05-22T01:03:43.924Z,5.10
2023-05-22T01:04:44.337Z,5.10
2023-05-22T01:05:44.330Z,5.10
2023-05-22T01:06:43.573Z,4.50
2023-05-22T01:07:43.544Z,4.70
2023-05-22T01:08:43.638Z,4.80
2023-05-22T01:09:43.552Z,4.60
2023-05-22T01:10:43.538Z,4.70
2023-05-22T01:11:43.519Z,5.30
2023-05-22T01:12:43.553Z,5.40
2023-05-22T01:13:43.472Z,4.50
2023-05-22T01:14:43.476Z,5.00
2023-05-22T01:15:43.829Z,5.00
2023-05-22T01:16:43.546Z,4.80
2023-05-22T01:17:43.465Z,5.00
2023-05-22T01:18:43.926Z,4.60
2023-05-22T01:19:43.406Z,4.50
2023-05-22T01:20:43.667Z,4.80
2023-05-22T01:21:43.407Z,4.60
2023-05-22T01:22:43.392Z,4.70
2023-05-22T01:23:43.386Z,4.80
2023-05-22T01:24:44.074Z,4.60
2023-05-22T01:25:44.090Z,5.30
2023-05-22T01:26:43.362Z,5.10
2023-05-22T01:27:43.320Z,4.40
2023-05-22T01:28:43.337Z,5.30
2023-05-22T01:29:43.334Z,4.60
2023-05-22T01:30:43.302Z,4.50
2023-05-22T01:31:44.265Z,4.50
2023-05-22T01:32:43.326Z,5.30
2023-05-22T01:33:43.364Z,4.90
2023-05-22T01:34:43.269Z,5.00
2023-05-22T01:35:43.222Z,4.90
2023-05-22T01:36:43.311Z,4.90
2023-05-22T01:37:43.226Z,5.00
2023-05-22T01:38:43.206Z,4.90
2023-05-22T01:39:43.292Z,4.70
2023-05-22T01:40:43.361Z,4.60
2023-05-22T01:41:43.188Z,4.70
2023-05-22T01:42:43.479Z,4.50
2023-05-22T01:43:43.348Z,5.20
2023-05-22T01:44:43.353Z,4.50
2023-05-22T01:45:43.140Z,4.90
2023-05-22T01:46:43.114Z,5.10
2023-05-22T01:47:43.665Z,4.80
2023-05-22T01:48:43.106Z,5.00
2023-05-22T01:49:43.702Z,5.00
2023-05-22T01:50:43.734Z,4.70
2023-05-22T01:51:43.364Z,4.90
2023-05-22T01:52:43.305Z,4.90
2023-05-22T01:53:43.045Z,5.20
2023-05-22T01:54:43.050Z,4.30
2023-05-22T01:55:43.354Z,4.60
2023-05-22T01:56:43.023Z,4.50
2023-05-22T01:57:42.972Z,4.60
2023-05-22T01:58:43.036Z,4.50
2023-05-22T01:59:42.949Z,4.70
2023-05-22T02:00:43.093Z,4.30
2023-05-22T02:01:43.196Z,4.80
2023-05-22T02:02:42.998Z,5.00
2023-05-22T02:03:43.240Z,4.70
2023-05-22T02:04:43.047Z,4.50
2023-05-22T02:05:42.892Z,4.30
2023-05-22T02:06:42.898Z,4.40
2023-05-22T02:07:43.280Z,4.80
2023-05-22T02:08:43.309Z,4.70
2023-05-22T02:09:43.326Z,5.00
2023-05-22T02:10:43.365Z,4.90
2023-05-22T02:11:43.378Z,5.00
2023-05-22T02:12:42.850Z,5.00
2023-05-22T02:13:43.437Z,5.00
2023-05-22T02:14:42.836Z,5.10
2023-05-22T02:15:42.842Z,4.80
2023-05-22T02:16:43.141Z,5.20
2023-05-22T02:17:42.797Z,4.70
2023-05-22T02:18:42.757Z,5.30
2023-05-22T02:19:43.115Z,5.10
2023-05-22T02:20:42.738Z,5.20
2023-05-22T02:21:42.713Z,5.30
2023-05-22T02:22:42.719Z,4.90
2023-05-22T02:23:42.718Z,5.10
2023-05-22T02:24:42.757Z,4.60
2023-05-22T02:25:42.779Z,4.90
2023-05-22T02:26:42.662Z,5.00
2023-05-22T02:27:42.856Z,4.80
2023-05-22T02:28:42.825Z,4.40
2023-05-22T02:29:42.608Z,4.80
2023-05-22T02:30:42.934Z,4.70
2023-05-22T02:31:42.827Z,5.10
2023-05-22T02:32:42.854Z,4.40
2023-05-22T02:33:42.587Z,5.40
2023-05-22T02:34:43.048Z,4.40
2023-05-22T02:35:43.083Z,4.80
2023-05-22T02:36:42.547Z,5.10
2023-05-22T02:37:42.532Z,5.20
2023-05-22T02:38:43.183Z,5.10
2023-05-22T02:39:42.514Z,4.90
2023-05-22T02:40:42.584Z,5.90
2023-05-22T02:41:42.501Z,4.80
2023-05-22T02:42:42.489Z,5.20
2023-05-22T02:43:42.623Z,4.50
2023-05-22T02:44:43.356Z,4.80
2023-05-22T02:45:42.410Z,4.40
2023-05-22T02:46:42.879Z,4.70
2023-05-22T02:47:42.425Z,4.10
2023-05-22T02:48:42.419Z,4.70
2023-05-22T02:49:42.384Z,4.70
2023-05-22T02:50:42.382Z,5.70
2023-05-22T02:51:42.477Z,5.00
2023-05-22T02:52:42.367Z,5.00
2023-05-22T02:53:42.340Z,4.90
2023-05-22T02:54:42.342Z,4.80
2023-05-22T02:55:42.306Z,4.60
2023-05-22T02:56:42.407Z,5.20
2023-05-22T02:57:42.280Z,5.00
2023-05-22T02:58:42.403Z,5.50
2023-05-22T02:59:42.412Z,5.00
2023-05-22T03:00:42.311Z,5.40
2023-05-22T03:01:42.309Z,5.10
2023-05-22T03:02:42.474Z,5.00
2023-05-22T03:03:42.332Z,5.10
2023-05-22T03:04:42.231Z,5.50
2023-05-22T03:05:42.207Z,4.90
2023-05-22T03:06:42.192Z,5.70
2023-05-22T03:07:42.233Z,5.00
2023-05-22T03:08:42.419Z,5.40
2023-05-22T03:09:42.148Z,5.20
2023-05-22T03:10:42.159Z,4.70
2023-05-22T03:11:42.169Z,5.20
2023-05-22T03:12:42.142Z,5.00
2023-05-22T03:13:42.094Z,5.00
2023-05-22T03:14:42.267Z,5.10
2023-05-22T03:15:42.281Z,4.90
2023-05-22T03:16:42.122Z,5.10
2023-05-22T03:17:42.383Z,5.20
2023-05-22T03:18:42.066Z,4.90
2023-05-22T03:19:42.029Z,5.10
2023-05-22T03:20:42.316Z,5.10
2023-05-22T03:21:42.009Z,5.20
2023-05-22T03:22:42.014Z,5.30
2023-05-22T03:23:42.016Z,5.60
2023-05-22T03:24:41.990Z,5.00
2023-05-22T03:25:41.987Z,5.10
2023-05-22T03:26:42.436Z,5.10
2023-05-22T03:27:41.934Z,5.40
2023-05-22T03:28:41.986Z,5.80
2023-05-22T03:29:41.919Z,5.00
2023-05-22T03:30:42.114Z,5.10
2023-05-22T03:31:42.434Z,5.20
2023-05-22T03:32:41.919Z,5.00
2023-05-22T03:33:41.908Z,5.00
2023-05-22T03:34:41.877Z,5.50
2023-05-22T03:35:42.361Z,4.90
2023-05-22T03:36:42.446Z,5.10
2023-05-22T03:37:41.818Z,6.10
2023-05-22T03:38:42.274Z,4.80
2023-05-22T03:39:41.810Z,5.10
2023-05-22T03:40:41.977Z,5.40
2023-05-22T03:41:41.816Z,4.90
2023-05-22T03:42:41.805Z,5.30
2023-05-22T03:43:44.247Z,5.20
2023-05-22T03:44:41.929Z,5.30
2023-05-22T03:45:41.747Z,4.80
2023-05-22T03:46:41.743Z,5.10
2023-05-22T03:47:42.044Z,4.90
2023-05-22T03:48:41.740Z,5.10
2023-05-22T03:49:41.707Z,5.20
2023-05-22T03:50:41.935Z,5.20
2023-05-22T03:51:41.661Z,5.20
2023-05-22T03:52:42.161Z,5.20
2023-05-22T03:53:41.645Z,5.10
2023-05-22T03:54:41.671Z,5.20
2023-05-22T03:55:42.223Z,4.70
2023-05-22T03:56:41.625Z,5.80
2023-05-22T03:57:41.588Z,5.20
2023-05-22T03:58:41.607Z,5.30
2023-05-22T03:59:41.605Z,5.20
2023-05-22T04:00:41.636Z,4.70
2023-05-22T04:01:41.587Z,5.00
2023-05-22T04:02:41.606Z,5.20
2023-05-22T04:03:41.794Z,5.40
2023-05-22T04:04:41.554Z,5.40
2023-05-22T04:05:41.556Z,5.40
2023-05-22T04:06:41.493Z,5.20
2023-05-22T04:07:41.579Z,4.80
2023-05-22T04:08:41.470Z,5.00
2023-05-22T04:09:41.593Z,5.20
2023-05-22T04:10:41.656Z,5.90
2023-05-22T04:11:41.471Z,5.60
2023-05-22T04:12:41.458Z,5.60
2023-05-22T04:13:41.417Z,5.50
2023-05-22T04:14:41.439Z,5.60
2023-05-22T04:15:41.441Z,5.50
2023-05-22T04:16:41.417Z,5.20
2023-05-22T04:17:41.457Z,6.30
2023-05-22T04:18:41.364Z,5.00
2023-05-22T04:19:41.377Z,5.70
2023-05-22T04:20:41.479Z,5.60
2023-05-22T04:21:41.342Z,5.20
2023-05-22T04:22:41.415Z,5.60
2023-05-22T04:23:41.302Z,5.60
2023-05-22T04:24:41.278Z,5.30
2023-05-22T04:25:41.301Z,5.20
2023-05-22T04:26:42.577Z,4.90
2023-05-22T04:27:41.495Z,5.50
2023-05-22T04:28:41.254Z,5.10
2023-05-22T04:29:41.249Z,5.80
2023-05-22T04:30:41.390Z,5.10
2023-05-22T04:31:41.296Z,5.00
2023-05-22T04:32:41.239Z,5.20
2023-05-22T04:33:41.237Z,5.20
2023-05-22T04:34:41.170Z,5.30
2023-05-22T04:35:41.190Z,5.10
2023-05-22T04:36:41.155Z,5.80
2023-05-22T04:37:41.197Z,5.20
2023-05-22T04:38:41.132Z,5.10
2023-05-22T04:39:41.451Z,5.80
2023-05-22T04:40:41.346Z,6.20
2023-05-22T04:41:41.127Z,4.90
2023-05-22T04:42:41.490Z,5.00
2023-05-22T04:43:41.502Z,5.20
2023-05-22T04:44:41.059Z,4.90
2023-05-22T04:45:41.289Z,5.30
2023-05-22T04:46:41.119Z,4.70
2023-05-22T04:47:41.120Z,5.60
2023-05-22T04:48:41.095Z,5.20
2023-05-22T04:49:41.004Z,6.50
2023-05-22T04:50:41.236Z,5.50
2023-05-22T04:51:41.188Z,4.90
2023-05-22T04:52:40.960Z,5.10
2023-05-22T04:53:40.968Z,5.80
2023-05-22T04:54:41.268Z,5.30
2023-05-22T04:55:41.300Z,4.50
2023-05-22T04:56:40.930Z,5.10
2023-05-22T04:57:40.937Z,5.00
2023-05-22T04:58:40.884Z,5.10
2023-05-22T04:59:41.438Z,5.10
2023-05-22T05:00:41.075Z,5.10
2023-05-22T05:01:40.937Z,5.50
2023-05-22T05:02:40.863Z,5.50
2023-05-22T05:03:41.406Z,5.70
2023-05-22T05:04:40.842Z,5.10
2023-05-22T05:05:40.815Z,5.10
2023-05-22T05:06:40.808Z,5.20
2023-05-22T05:07:40.808Z,5.30
2023-05-22T05:08:40.792Z,4.90
2023-05-22T05:09:40.777Z,5.40
2023-05-22T05:10:41.035Z,5.30
2023-05-22T05:11:41.596Z,4.90
2023-05-22T05:12:40.717Z,5.10
2023-05-22T05:13:40.746Z,5.00
2023-05-22T05:14:41.808Z,5.00
2023-05-22T05:15:40.711Z,5.20
2023-05-22T05:16:40.793Z,5.40
2023-05-22T05:17:40.723Z,5.30
2023-05-22T05:18:41.506Z,5.10
2023-05-22T05:19:41.594Z,5.80
2023-05-22T05:20:41.234Z,5.30
2023-05-22T05:21:40.660Z,4.90
2023-05-22T05:22:40.614Z,4.90
2023-05-22T05:23:40.616Z,5.20
2023-05-22T05:24:40.604Z,4.90
2023-05-22T05:25:40.589Z,5.00
2023-05-22T05:26:40.733Z,5.20
2023-05-22T05:27:40.755Z,5.10
2023-05-22T05:28:40.540Z,5.30
2023-05-22T05:29:40.550Z,5.80
2023-05-22T05:30:40.885Z,5.20
2023-05-22T05:31:40.562Z,5.40
2023-05-22T05:32:40.543Z,5.30
2023-05-22T05:33:40.500Z,5.50
2023-05-22T05:34:40.469Z,5.60
2023-05-22T05:35:42.814Z,5.00
2023-05-22T05:36:40.479Z,5.00
2023-05-22T05:37:40.476Z,5.50
2023-05-22T05:38:40.538Z,5.70
2023-05-22T05:39:40.431Z,5.10
2023-05-22T05:40:40.632Z,5.50
2023-05-22T05:41:40.441Z,5.60
2023-05-22T05:42:40.538Z,5.60
2023-05-22T05:43:40.997Z,6.00
2023-05-22T05:44:40.356Z,5.20
2023-05-22T05:45:40.371Z,4.90
2023-05-22T05:46:40.483Z,5.50
2023-05-22T05:47:40.704Z,5.50
2023-05-22T05:48:40.324Z,5.60
2023-05-22T05:49:40.330Z,5.20
2023-05-22T05:50:40.733Z,5.90
2023-05-22T05:51:41.285Z,6.10
2023-05-22T05:52:40.307Z,6.00
2023-05-22T05:53:40.267Z,6.30
2023-05-22T05:54:41.034Z,5.80
2023-05-22T05:55:40.303Z,5.30
2023-05-22T05:56:41.373Z,5.70
2023-05-22T05:57:41.267Z,5.50
2023-05-22T05:58:40.557Z,6.20
2023-05-22T05:59:41.097Z,5.60
2023-05-22T06:00:40.501Z,6.60
2023-05-22T06:01:40.215Z,5.70
2023-05-22T06:02:40.244Z,6.00
2023-05-22T06:03:40.634Z,5.70
2023-05-22T06:04:40.132Z,5.20
2023-05-22T06:05:40.259Z,6.30
2023-05-22T06:06:40.141Z,5.70
2023-05-22T06:07:40.117Z,5.40
2023-05-22T06:08:40.123Z,6.00
2023-05-22T06:09:40.560Z,5.40
2023-05-22T06:10:40.304Z,5.90
2023-05-22T06:11:40.564Z,5.60
2023-05-22T06:12:40.069Z,5.70
2023-05-22T06:13:40.325Z,5.60
2023-05-22T06:14:40.027Z,5.70
2023-05-22T06:15:40.050Z,6.10
2023-05-22T06:16:40.451Z,5.90
2023-05-22T06:17:40.081Z,5.90
2023-05-22T06:18:39.978Z,6.10
2023-05-22T06:19:40.027Z,5.80
2023-05-22T06:20:40.318Z,5.80
2023-05-22T06:21:39.962Z,5.70
2023-05-22T06:22:39.924Z,6.60
2023-05-22T06:23:40.307Z,6.90
2023-05-22T06:24:39.952Z,5.90
2023-05-22T06:25:39.910Z,6.50
2023-05-22T06:26:40.221Z,7.20
2023-05-22T06:27:39.902Z,7.20
2023-05-22T06:28:39.880Z,6.80
2023-05-22T06:29:40.475Z,7.40
2023-05-22T06:30:40.684Z,7.40
2023-05-22T06:31:39.879Z,8.10
2023-05-22T06:32:39.981Z,6.10
2023-05-22T06:33:39.951Z,6.20
2023-05-22T06:34:40.582Z,7.00
2023-05-22T06:35:39.822Z,6.70
2023-05-22T06:36:39.770Z,6.60
2023-05-22T06:37:40.575Z,7.10
2023-05-22T06:38:40.192Z,8.10
2023-05-22T06:39:39.781Z,7.50
2023-05-22T06:40:39.962Z,7.30
2023-05-22T06:41:39.765Z,7.00
2023-05-22T06:42:40.542Z,7.00
2023-05-22T06:43:40.081Z,6.80
2023-05-22T06:44:40.202Z,7.10
2023-05-22T06:45:40.603Z,7.00
2023-05-22T06:46:40.589Z,7.10
2023-05-22T06:47:40.617Z,8.30
2023-05-22T06:48:40.456Z,6.80
2023-05-22T06:49:39.669Z,8.60
2023-05-22T06:50:39.924Z,7.60
2023-05-22T06:51:39.616Z,7.50
2023-05-22T06:52:39.586Z,7.90
2023-05-22T06:53:39.612Z,9.10
2023-05-22T06:54:39.586Z,6.90
2023-05-22T06:55:39.572Z,7.80
2023-05-22T06:56:39.543Z,7.30
2023-05-22T06:57:39.566Z,7.40
2023-05-22T06:58:39.566Z,7.80
2023-05-22T06:59:39.539Z,7.50
2023-05-22T07:00:39.765Z,8.90
2023-05-22T07:01:39.668Z,11.00
2023-05-22T07:02:39.495Z,8.90
2023-05-22T07:03:39.469Z,7.80
2023-05-22T07:04:39.472Z,7.70
2023-05-22T07:05:39.465Z,7.90
2023-05-22T07:06:39.461Z,7.00
2023-05-22T07:07:39.473Z,7.20
2023-05-22T07:08:39.399Z,7.60
2023-05-22T07:09:39.413Z,8.00
2023-05-22T07:10:39.558Z,7.40
2023-05-22T07:11:39.412Z,7.40
2023-05-22T07:12:39.358Z,8.30
2023-05-22T07:13:39.353Z,7.40
2023-05-22T07:14:39.405Z,7.80
2023-05-22T07:15:40.236Z,8.30
2023-05-22T07:16:39.339Z,7.90
2023-05-22T07:17:39.427Z,8.30
2023-05-22T07:18:39.296Z,8.30
2023-05-22T07:19:39.293Z,8.10
2023-05-22T07:20:39.455Z,7.00
2023-05-22T07:21:39.277Z,7.00
2023-05-22T07:22:39.271Z,7.30
2023-05-22T07:23:39.243Z,8.00
2023-05-22T07:24:39.242Z,8.30
2023-05-22T07:25:39.211Z,8.20
2023-05-22T07:26:39.194Z,9.80
2023-05-22T07:27:39.212Z,8.20
2023-05-22T07:28:39.194Z,9.00
2023-05-22T07:29:39.171Z,9.30
2023-05-22T07:30:39.327Z,9.80
2023-05-22T07:31:39.228Z,8.40
2023-05-22T07:32:39.185Z,8.80
2023-05-22T07:33:39.155Z,8.90
2023-05-22T07:34:39.098Z,10.10
2023-05-22T07:35:39.118Z,9.20
2023-05-22T07:36:39.086Z,8.70
2023-05-22T07:37:39.101Z,8.30
2023-05-22T07:38:39.069Z,8.00
2023-05-22T07:39:39.075Z,8.40
2023-05-22T07:40:39.228Z,9.20
2023-05-22T07:41:39.059Z,10.70
2023-05-22T07:42:39.025Z,8.70
2023-05-22T07:43:39.014Z,9.20
2023-05-22T07:44:38.988Z,8.70
2023-05-22T07:45:39.175Z,8.90
2023-05-22T07:46:39.114Z,8.90
2023-05-22T07:47:39.037Z,10.20
2023-05-22T07:48:38.960Z,10.50
2023-05-22T07:49:38.947Z,10.00
2023-05-22T07:50:38.908Z,9.50
2023-05-22T07:51:38.914Z,10.20
2023-05-22T07:52:38.917Z,10.70
2023-05-22T07:53:39.645Z,11.10
2023-05-22T07:54:39.089Z,11.60
2023-05-22T07:55:39.132Z,13.10
2023-05-22T07:56:38.843Z,12.20
2023-05-22T07:57:38.888Z,13.40
2023-05-22T07:58:38.813Z,14.20
2023-05-22T07:59:38.829Z,13.90
2023-05-22T08:00:38.827Z,13.70
2023-05-22T08:01:39.004Z,13.40
2023-05-22T08:02:38.940Z,12.70
2023-05-22T08:03:39.085Z,12.90
2023-05-22T08:04:38.965Z,13.50
2023-05-22T08:05:38.754Z,12.00
2023-05-22T08:06:38.826Z,12.30
2023-05-22T08:07:38.748Z,13.10
2023-05-22T08:08:38.750Z,11.90
2023-05-22T08:09:39.180Z,14.90
2023-05-22T08:11:39.834Z,14.10
2023-05-22T08:12:38.689Z,14.40
2023-05-22T08:13:38.712Z,12.40
2023-05-22T08:14:38.642Z,12.80
2023-05-22T08:15:38.645Z,14.00
2023-05-22T08:16:38.659Z,15.20
2023-05-22T08:17:38.804Z,13.30
2023-05-22T08:18:38.667Z,14.20
2023-05-22T08:19:38.725Z,15.10
2023-05-22T08:20:38.871Z,14.70
2023-05-22T08:21:38.657Z,13.40
2023-05-22T08:22:38.562Z,13.00
2023-05-22T08:23:38.670Z,14.80
2023-05-22T08:24:38.579Z,14.10
2023-05-22T08:25:38.667Z,13.60
2023-05-22T08:26:38.543Z,12.90
2023-05-22T08:27:38.515Z,17.60
2023-05-22T08:28:38.492Z,17.60
2023-05-22T08:29:38.481Z,17.20
2023-05-22T08:30:38.665Z,15.50
2023-05-22T08:31:38.765Z,13.70
2023-05-22T08:32:38.471Z,13.30
2023-05-22T08:33:38.421Z,12.90
2023-05-22T08:34:38.436Z,13.60
2023-05-22T08:35:38.432Z,13.50
2023-05-22T08:36:38.402Z,11.90
2023-05-22T08:37:38.416Z,15.10
2023-05-22T08:38:38.400Z,14.30
2023-05-22T08:39:38.361Z,16.50
2023-05-22T08:40:38.652Z,13.30
2023-05-22T08:41:38.349Z,14.20
2023-05-22T08:42:38.347Z,12.50
2023-05-22T08:43:38.343Z,15.40
2023-05-22T08:44:38.349Z,14.30
2023-05-22T08:45:38.676Z,13.60
2023-05-22T08:46:38.457Z,13.00
2023-05-22T08:47:38.383Z,13.90
2023-05-22T08:48:38.283Z,12.60
2023-05-22T08:49:38.273Z,12.30
2023-05-22T08:50:38.604Z,11.80
2023-05-22T08:51:38.227Z,12.40
2023-05-22T08:52:38.221Z,12.60
2023-05-22T08:53:38.354Z,15.30
2023-05-22T08:54:38.226Z,13.40
2023-05-22T08:55:38.418Z,13.10
2023-05-22T08:56:45.477Z,13.20
2023-05-22T08:57:39.158Z,11.90
2023-05-22T08:58:38.213Z,12.80
2023-05-22T08:59:38.157Z,11.90
2023-05-22T09:00:38.354Z,13.90
2023-05-22T09:01:38.243Z,13.10
2023-05-22T09:02:38.191Z,12.70
2023-05-22T09:03:38.121Z,12.90
2023-05-22T09:04:38.116Z,10.60
2023-05-22T09:05:38.063Z,10.90
2023-05-22T09:06:38.109Z,12.10
2023-05-22T09:07:38.071Z,11.50
2023-05-22T09:08:38.051Z,12.10
2023-05-22T09:09:38.610Z,12.50
2023-05-22T09:10:38.495Z,11.90
2023-05-22T09:11:38.000Z,11.00
2023-05-22T09:12:38.011Z,11.90
2023-05-22T09:13:37.984Z,11.30
2023-05-22T09:14:37.992Z,11.60
2023-05-22T09:15:37.974Z,12.00
2023-05-22T09:16:38.040Z,11.90
2023-05-22T09:17:38.121Z,11.00
2023-05-22T09:18:38.049Z,13.60
2023-05-22T09:19:38.104Z,12.00
2023-05-22T09:20:38.438Z,11.80
2023-05-22T09:21:37.928Z,11.40
2023-05-22T09:22:37.892Z,11.20
2023-05-22T09:23:37.863Z,12.20
2023-05-22T09:24:37.865Z,10.30
2023-05-22T09:25:37.842Z,10.00
2023-05-22T09:26:37.895Z,10.10
2023-05-22T09:27:37.814Z,10.30
2023-05-22T09:28:37.839Z,9.80
2023-05-22T09:29:37.826Z,9.40
2023-05-22T09:30:38.046Z,9.00
2023-05-22T09:31:37.805Z,10.30
2023-05-22T09:32:37.845Z,9.70
2023-05-22T09:33:37.762Z,11.80
2023-05-22T09:34:37.833Z,11.10
2023-05-22T09:35:37.789Z,11.50
2023-05-22T09:36:37.791Z,11.90
2023-05-22T09:37:37.789Z,11.20
2023-05-22T09:38:37.708Z,11.60
2023-05-22T09:39:37.800Z,12.90
2023-05-22T09:40:37.727Z,11.80
2023-05-22T09:41:37.680Z,11.90
2023-05-22T09:42:37.689Z,10.60
2023-05-22T09:43:37.655Z,9.50
2023-05-22T09:44:37.638Z,10.20
2023-05-22T09:45:37.611Z,12.80
2023-05-22T09:46:37.675Z,13.20
2023-05-22T09:47:37.642Z,9.90
2023-05-22T09:48:37.619Z,10.30
2023-05-22T09:49:37.556Z,10.50
2023-05-22T09:50:37.750Z,11.80
2023-05-22T09:51:37.542Z,10.20
2023-05-22T09:52:37.585Z,12.60
2023-05-22T09:53:37.600Z,10.10
2023-05-22T09:54:37.591Z,13.60
2023-05-22T09:55:37.569Z,10.70
2023-05-22T09:56:39.912Z,9.20
2023-05-22T09:57:37.600Z,10.20
2023-05-22T09:58:37.552Z,8.10
2023-05-22T09:59:37.526Z,9.10
2023-05-22T10:00:37.802Z,8.70
2023-05-22T10:01:37.531Z,8.30
2023-05-22T10:02:37.533Z,8.00
2023-05-22T10:03:37.482Z,8.50
2023-05-22T10:04:37.539Z,9.40
2023-05-22T10:05:37.417Z,12.60
2023-05-22T10:06:37.479Z,12.50
2023-05-22T10:07:37.387Z,10.80
2023-05-22T10:08:37.452Z,10.80
2023-05-22T10:09:37.381Z,9.50
2023-05-22T10:10:37.558Z,10.40
2023-05-22T10:11:37.710Z,11.00
2023-05-22T10:12:37.387Z,11.30
2023-05-22T10:13:37.335Z,9.30
2023-05-22T10:14:37.386Z,9.70
2023-05-22T10:15:37.298Z,8.50
2023-05-22T10:16:37.341Z,10.30
2023-05-22T10:17:37.313Z,11.10
2023-05-22T10:18:37.285Z,11.30
2023-05-22T10:19:38.590Z,13.60
2023-05-22T10:20:37.249Z,13.60
2023-05-22T10:21:37.257Z,11.50
2023-05-22T10:22:37.222Z,11.50
2023-05-22T10:23:37.188Z,11.40
2023-05-22T10:24:37.203Z,10.40
2023-05-22T10:25:37.163Z,9.40
2023-05-22T10:26:37.175Z,8.90
2023-05-22T10:27:37.173Z,8.80
2023-05-22T10:28:37.157Z,9.80
2023-05-22T10:29:37.135Z,11.70
2023-05-22T10:30:37.131Z,11.00
2023-05-22T10:31:39.443Z,10.10
2023-05-22T10:32:37.180Z,9.80
2023-05-22T10:33:37.111Z,9.10
2023-05-22T10:34:37.082Z,10.30
2023-05-22T10:35:37.070Z,9.70
2023-05-22T10:36:37.064Z,11.10
2023-05-22T10:37:37.028Z,11.80
2023-05-22T10:38:37.078Z,11.90
2023-05-22T10:39:37.049Z,13.60
2023-05-22T10:40:37.117Z,10.60
2023-05-22T10:41:36.996Z,10.00
2023-05-22T10:42:36.995Z,10.20
2023-05-22T10:43:36.993Z,10.40
2023-05-22T10:44:37.035Z,10.00
2023-05-22T10:45:37.317Z,11.50
2023-05-22T10:46:37.028Z,10.00
2023-05-22T10:47:36.968Z,10.40
2023-05-22T10:48:36.900Z,9.60
2023-05-22T10:49:37.406Z,8.80
2023-05-22T10:50:36.950Z,8.80
2023-05-22T10:51:36.912Z,10.30
2023-05-22T10:52:36.887Z,9.30
2023-05-22T10:53:37.521Z,9.80
2023-05-22T10:54:36.849Z,9.30
2023-05-22T10:55:36.895Z,11.40
2023-05-22T10:56:37.624Z,12.00
2023-05-22T10:57:36.891Z,11.80
2023-05-22T10:58:36.814Z,9.60
2023-05-22T10:59:36.824Z,11.90
2023-05-22T11:00:36.850Z,11.60
2023-05-22T11:01:36.793Z,13.10
2023-05-22T11:02:36.836Z,11.30
2023-05-22T11:03:36.772Z,11.70
2023-05-22T11:04:36.778Z,13.60
2023-05-22T11:05:36.875Z,11.50
2023-05-22T11:06:36.817Z,12.60
2023-05-22T11:07:36.708Z,10.50
2023-05-22T11:08:36.732Z,11.20
2023-05-22T11:09:36.700Z,11.60
2023-05-22T11:10:36.676Z,11.40
2023-05-22T11:11:36.649Z,10.20
2023-05-22T11:12:36.674Z,10.40
2023-05-22T11:13:36.667Z,9.40
2023-05-22T11:14:36.820Z,13.20
2023-05-22T11:15:36.605Z,13.50
2023-05-22T11:16:36.699Z,12.80
2023-05-22T11:17:36.659Z,15.10
2023-05-22T11:18:36.587Z,12.70
2023-05-22T11:19:36.570Z,11.20
2023-05-22T11:20:36.581Z,12.70
2023-05-22T11:21:36.533Z,11.50
2023-05-22T11:22:36.827Z,12.90
2023-05-22T11:23:36.510Z,12.50
2023-05-22T11:24:36.570Z,12.20
2023-05-22T11:25:36.549Z,13.00
2023-05-22T11:26:36.506Z,14.00
2023-05-22T11:27:36.533Z,13.20
2023-05-22T11:28:36.488Z,12.20
2023-05-22T11:29:36.463Z,13.90
2023-05-22T11:30:36.518Z,14.30
2023-05-22T11:31:36.527Z,13.70
2023-05-22T11:32:36.468Z,16.60
2023-05-22T11:33:36.402Z,15.30
2023-05-22T11:34:36.422Z,16.00
2023-05-22T11:35:36.370Z,17.00
2023-05-22T11:36:36.395Z,17.30
2023-05-22T11:37:36.435Z,15.20
2023-05-22T11:38:36.457Z,14.40
2023-05-22T11:39:36.331Z,15.50
2023-05-22T11:40:36.360Z,16.60
2023-05-22T11:41:36.337Z,14.00
2023-05-22T11:42:36.311Z,16.10
2023-05-22T11:43:36.294Z,15.90
2023-05-22T11:44:36.307Z,17.10
2023-05-22T11:45:36.258Z,14.60
2023-05-22T11:46:36.614Z,13.90
2023-05-22T11:47:36.616Z,13.60
2023-05-22T11:48:36.272Z,12.40
2023-05-22T11:49:36.263Z,15.80
2023-05-22T11:50:42.357Z,15.90
2023-05-22T11:51:37.201Z,15.80
2023-05-22T11:52:36.225Z,14.60
2023-05-22T11:53:36.201Z,13.20
2023-05-22T11:54:38.626Z,13.20
2023-05-22T11:55:36.239Z,13.60
2023-05-22T11:56:36.178Z,12.40
2023-05-22T11:57:36.139Z,14.60
2023-05-22T11:58:36.156Z,12.80
2023-05-22T11:59:36.191Z,13.00
2023-05-22T12:00:36.218Z,11.40
2023-05-22T12:01:36.093Z,11.30
2023-05-22T12:02:36.233Z,9.60
2023-05-22T12:03:36.299Z,12.20
2023-05-22T12:04:36.095Z,13.10
2023-05-22T12:05:36.106Z,14.00
2023-05-22T12:06:36.158Z,12.90
2023-05-22T12:07:36.087Z,11.70
2023-05-22T12:08:36.017Z,16.50
2023-05-22T12:09:36.786Z,15.80
2023-05-22T12:10:36.859Z,12.80
2023-05-22T12:11:35.979Z,15.00
2023-05-22T12:12:35.993Z,13.30
2023-05-22T12:13:35.946Z,13.30
2023-05-22T12:14:35.980Z,10.80
2023-05-22T12:15:35.964Z,9.80
2023-05-22T12:16:35.994Z,9.70
2023-05-22T12:17:36.872Z,10.00
2023-05-22T12:18:36.860Z,13.30
2023-05-22T12:19:36.960Z,12.80
2023-05-22T12:20:35.942Z,11.70
2023-05-22T12:21:35.876Z,11.00
2023-05-22T12:22:35.890Z,11.00
2023-05-22T12:23:35.947Z,12.20
2023-05-22T12:24:35.842Z,10.80
2023-05-22T12:25:36.002Z,12.70
2023-05-22T12:26:35.816Z,11.00
2023-05-22T12:27:37.917Z,10.00
2023-05-22T12:28:35.801Z,8.70
2023-05-22T12:29:35.797Z,9.50
2023-05-22T12:30:35.810Z,10.00
2023-05-22T12:31:35.855Z,12.50
2023-05-22T12:32:35.813Z,10.50
2023-05-22T12:33:35.867Z,9.40
2023-05-22T12:34:35.708Z,9.00
2023-05-22T12:35:35.722Z,9.30
2023-05-22T12:36:35.689Z,9.30
2023-05-22T12:37:35.758Z,8.60
2023-05-22T12:38:35.737Z,7.50
2023-05-22T12:39:35.694Z,8.30
2023-05-22T12:40:36.433Z,11.30
2023-05-22T12:41:36.480Z,9.10
2023-05-22T12:42:35.636Z,9.20
2023-05-22T12:43:35.713Z,9.20
2023-05-22T12:44:36.505Z,9.70
2023-05-22T12:45:35.895Z,9.50
2023-05-22T12:46:36.603Z,11.00
2023-05-22T12:47:35.626Z,10.00
2023-05-22T12:48:36.014Z,9.80
2023-05-22T12:49:36.541Z,9.20
2023-05-22T12:50:35.544Z,9.60
2023-05-22T12:51:35.670Z,9.60
2023-05-22T12:52:35.528Z,8.70
2023-05-22T12:53:35.525Z,8.60
2023-05-22T12:54:35.555Z,8.20
2023-05-22T12:55:35.506Z,8.00
2023-05-22T12:56:35.896Z,8.80
2023-05-22T12:57:35.899Z,9.60
2023-05-22T12:58:35.441Z,10.90
2023-05-22T12:59:35.451Z,9.50
2023-05-22T13:00:35.898Z,13.10
2023-05-22T13:01:35.569Z,8.90
2023-05-22T13:02:35.891Z,8.70
2023-05-22T13:03:35.413Z,11.20
2023-05-22T13:04:35.416Z,10.90
2023-05-22T13:05:35.486Z,11.60
2023-05-22T13:06:35.370Z,11.70
2023-05-22T13:07:35.556Z,11.60
2023-05-22T13:08:35.593Z,11.60
2023-05-22T13:09:35.488Z,12.20
2023-05-22T13:10:35.337Z,11.90